Roches Point, Ireland

5:49 AM IST on August 27, 2016 (GMT +0100)
Unnamed Road | | Change Station

Elev 183 ft 51.76 °N, 8.34 °W | Updated 2 minutes ago

Mostly Cloudy
Mostly Cloudy
68.4 °F
Feels Like 68.4 °F
N
1.2
Wind Variable Wind from ESE
Gusts 2.5 mph

Today
High -- | Low -- °F
--% Chance of Precip.
Yesterday
High -- | Low -- °F
Precip. -- in
Pressure 30.01 in
Visibility 1.0 miles
Clouds Scattered Clouds 100 ft
Mostly Cloudy 300 ft
Dew Point 59 °F
Humidity 71%
Rainfall 0.00 in
Snow Depth Not available.
6:37 AM 8:30 PM
Waning Crescent, 28% visible
METAR EICK 270430Z 13006KT 1600 BR SCT001 BKN003 14/13 Q1016 TEMPO 0500 BKN001
Pressure 30.01 in
Visibility 1.0 miles
Clouds Scattered Clouds 100 ft
Mostly Cloudy 300 ft
Dew Point 59 °F
Humidity 71%
Rainfall 0.00 in
Snow Depth Not available.
6:37 AM 8:30 PM
Waning Crescent, 28% visible
METAR EICK 270430Z 13006KT 1600 BR SCT001 BKN003 14/13 Q1016 TEMPO 0500 BKN001

10-Day Weather Forecast

×

Almanac

Astronomy

Aug. 27, 2016 Rise Set
Actual Time
Civil Twilight
Nautical Twilight
Astronomical Twilight
Moon
Length of Visible Light
Length of Day
Tomorrow will be .
, % of the Moon is Illuminated

Today's Extremes

Country Highs Country Lows

Community

WunderPhotos

Upload Photos

1,935,299 photos uploaded!

WunderBlog® & News

Nearby

Air Quality

  Air Quality AQ Index Pollutant
Not available.

Snow Depth

Station Depth Elevation

Earthquake Activity

City Distance Mag. Time & Date
Minimum magnitude displayed is 2.5.

Coastal Water Temperatures

Place Temperature

Stations

Nearby Weather Stations

Station Location Temp. Windchill Dew Point Humidity Wind Precip. Elev Updated Type